sensor_id;sensor_type;location;lat;lon;timestamp;pressure;altitude;pressure_sealevel;temperature;humidity
54389;BME280;40975;50.390;8.640;2023-02-18T00:00:06;99795.59;;;9.51;100.00
54389;BME280;40975;50.390;8.640;2023-02-18T00:02:32;99802.09;;;9.47;100.00
54389;BME280;40975;50.390;8.640;2023-02-18T00:04:58;99799.00;;;9.42;100.00
54389;BME280;40975;50.390;8.640;2023-02-18T00:07:23;99793.06;;;9.49;100.00
54389;BME280;40975;50.390;8.640;2023-02-18T00:09:48;99794.63;;;9.52;100.00
54389;BME280;40975;50.390;8.640;2023-02-18T00:12:14;99799.22;;;9.50;100.00
54389;BME280;40975;50.390;8.640;2023-02-18T00:14:39;99795.97;;;9.46;100.00
54389;BME280;40975;50.390;8.640;2023-02-18T00:17:04;99795.63;;;9.40;100.00
54389;BME280;40975;50.390;8.640;2023-02-18T00:19:29;99799.94;;;9.41;100.00
54389;BME280;40975;50.390;8.640;2023-02-18T00:21:56;99804.03;;;9.33;100.00
54389;BME280;40975;50.390;8.640;2023-02-18T00:24:21;99809.59;;;9.30;100.00
54389;BME280;40975;50.390;8.640;2023-02-18T00:26:49;99806.59;;;9.24;100.00
54389;BME280;40975;50.390;8.640;2023-02-18T00:29:15;99806.00;;;9.20;100.00
54389;BME280;40975;50.390;8.640;2023-02-18T00:31:41;99798.28;;;9.17;100.00
54389;BME280;40975;50.390;8.640;2023-02-18T00:34:06;99799.00;;;9.19;100.00
54389;BME280;40975;50.390;8.640;2023-02-18T00:36:32;99794.53;;;9.20;100.00
54389;BME280;40975;50.390;8.640;2023-02-18T00:39:00;99791.19;;;9.17;100.00
54389;BME280;40975;50.390;8.640;2023-02-18T00:41:27;99795.16;;;9.23;100.00
54389;BME280;40975;50.390;8.640;2023-02-18T00:43:53;99792.25;;;9.26;100.00
54389;BME280;40975;50.390;8.640;2023-02-18T00:46:19;99793.34;;;9.24;100.00
54389;BME280;40975;50.390;8.640;2023-02-18T00:48:45;99802.00;;;9.26;100.00
54389;BME280;40975;50.390;8.640;2023-02-18T00:51:11;99793.56;;;9.32;100.00
54389;BME280;40975;50.390;8.640;2023-02-18T00:53:36;99792.75;;;9.31;100.00
54389;BME280;40975;50.390;8.640;2023-02-18T00:56:02;99793.56;;;9.32;100.00
54389;BME280;40975;50.390;8.640;2023-02-18T00:58:28;99797.06;;;9.32;100.00
54389;BME280;40975;50.390;8.640;2023-02-18T01:00:54;99794.44;;;9.32;100.00
54389;BME280;40975;50.390;8.640;2023-02-18T01:03:20;99792.09;;;9.39;100.00
54389;BME280;40975;50.390;8.640;2023-02-18T01:05:46;99786.81;;;9.39;100.00
54389;BME280;40975;50.390;8.640;2023-02-18T01:08:12;99776.22;;;9.39;100.00
54389;BME280;40975;50.390;8.640;2023-02-18T01:10:41;99786.13;;;9.37;100.00
54389;BME280;40975;50.390;8.640;2023-02-18T01:13:07;99776.34;;;9.38;100.00
54389;BME280;40975;50.390;8.640;2023-02-18T01:15:32;99782.00;;;9.33;100.00
54389;BME280;40975;50.390;8.640;2023-02-18T01:17:58;99784.53;;;9.34;100.00
54389;BME280;40975;50.390;8.640;2023-02-18T01:20:23;99782.84;;;9.33;100.00
54389;BME280;40975;50.390;8.640;2023-02-18T01:22:48;99777.44;;;9.35;100.00
54389;BME280;40975;50.390;8.640;2023-02-18T01:25:14;99777.44;;;9.35;100.00
54389;BME280;40975;50.390;8.640;2023-02-18T01:27:40;99775.63;;;9.36;100.00
54389;BME280;40975;50.390;8.640;2023-02-18T01:30:08;99765.97;;;9.34;100.00
54389;BME280;40975;50.390;8.640;2023-02-18T01:32:35;99777.53;;;9.33;100.00
54389;BME280;40975;50.390;8.640;2023-02-18T01:35:01;99756.13;;;9.37;100.00
54389;BME280;40975;50.390;8.640;2023-02-18T01:37:27;99757.34;;;9.32;100.00
54389;BME280;40975;50.390;8.640;2023-02-18T01:39:52;99749.78;;;9.28;100.00
54389;BME280;40975;50.390;8.640;2023-02-18T01:42:25;99748.19;;;9.25;100.00
54389;BME280;40975;50.390;8.640;2023-02-18T01:44:51;99748.78;;;9.29;100.00
54389;BME280;40975;50.390;8.640;2023-02-18T01:47:17;99749.88;;;9.26;100.00
54389;BME280;40975;50.390;8.640;2023-02-18T01:49:46;99740.13;;;9.27;100.00
54389;BME280;40975;50.390;8.640;2023-02-18T01:52:16;99742.50;;;9.30;100.00
54389;BME280;40975;50.390;8.640;2023-02-18T01:54:48;99744.34;;;9.29;100.00
54389;BME280;40975;50.390;8.640;2023-02-18T01:57:16;99747.81;;;9.30;100.00
54389;BME280;40975;50.390;8.640;2023-02-18T01:59:48;99742.75;;;9.38;100.00
54389;BME280;40975;50.390;8.640;2023-02-18T02:02:17;99736.00;;;9.34;100.00
54389;BME280;40975;50.390;8.640;2023-02-18T02:04:43;99735.66;;;9.39;100.00
54389;BME280;40975;50.390;8.640;2023-02-18T02:07:09;99724.81;;;9.42;100.00
54389;BME280;40975;50.390;8.640;2023-02-18T02:09:35;99717.56;;;9.44;100.00
54389;BME280;40975;50.390;8.640;2023-02-18T02:12:44;99715.63;;;9.46;100.00
54389;BME280;40975;50.390;8.640;2023-02-18T02:34:52;99710.25;;;9.36;100.00
54389;BME280;40975;50.390;8.640;2023-02-18T02:37:44;99706.75;;;9.36;100.00
54389;BME280;40975;50.390;8.640;2023-02-18T02:45:41;99699.16;;;9.42;100.00
54389;BME280;40975;50.390;8.640;2023-02-18T02:50:51;99698.31;;;9.42;100.00
54389;BME280;40975;50.390;8.640;2023-02-18T02:53:23;99696.63;;;9.41;100.00
54389;BME280;40975;50.390;8.640;2023-02-18T02:55:50;99688.19;;;9.36;100.00
54389;BME280;40975;50.390;8.640;2023-02-18T02:58:18;99706.03;;;9.33;100.00
54389;BME280;40975;50.390;8.640;2023-02-18T03:01:09;99703.63;;;9.30;100.00
54389;BME280;40975;50.390;8.640;2023-02-18T03:06:25;99707.13;;;9.31;100.00
54389;BME280;40975;50.390;8.640;2023-02-18T03:09:16;99700.78;;;9.22;100.00
54389;BME280;40975;50.390;8.640;2023-02-18T03:14:58;99683.97;;;9.00;100.00
54389;BME280;40975;50.390;8.640;2023-02-18T03:17:34;99679.13;;;8.94;100.00
54389;BME280;40975;50.390;8.640;2023-02-18T03:20:09;99686.84;;;8.86;100.00
54389;BME280;40975;50.390;8.640;2023-02-18T03:22:46;99683.47;;;8.84;100.00
54389;BME280;40975;50.390;8.640;2023-02-18T03:25:13;99666.75;;;8.83;100.00
54389;BME280;40975;50.390;8.640;2023-02-18T03:27:45;99668.09;;;8.78;100.00
54389;BME280;40975;50.390;8.640;2023-02-18T03:30:17;99677.13;;;8.75;100.00
54389;BME280;40975;50.390;8.640;2023-02-18T03:32:48;99680.13;;;8.82;100.00
54389;BME280;40975;50.390;8.640;2023-02-18T03:35:16;99679.16;;;8.83;100.00
54389;BME280;40975;50.390;8.640;2023-02-18T03:37:47;99682.78;;;8.82;100.00
54389;BME280;40975;50.390;8.640;2023-02-18T03:40:14;99685.53;;;8.80;100.00
54389;BME280;40975;50.390;8.640;2023-02-18T03:42:41;99673.25;;;8.79;100.00
54389;BME280;40975;50.390;8.640;2023-02-18T03:45:06;99686.13;;;8.84;100.00
54389;BME280;40975;50.390;8.640;2023-02-18T03:47:32;99692.28;;;8.84;100.00
54389;BME280;40975;50.390;8.640;2023-02-18T03:49:57;99682.16;;;8.90;100.00
54389;BME280;40975;50.390;8.640;2023-02-18T03:52:23;99688.16;;;8.92;100.00
54389;BME280;40975;50.390;8.640;2023-02-18T03:54:49;99669.53;;;8.93;100.00
54389;BME280;40975;50.390;8.640;2023-02-18T03:57:15;99672.19;;;8.93;100.00
54389;BME280;40975;50.390;8.640;2023-02-18T03:59:40;99670.97;;;8.97;100.00
54389;BME280;40975;50.390;8.640;2023-02-18T04:02:06;99672.78;;;8.97;100.00
54389;BME280;40975;50.390;8.640;2023-02-18T04:04:31;99670.22;;;8.95;100.00
54389;BME280;40975;50.390;8.640;2023-02-18T04:06:56;99677.94;;;8.98;100.00
54389;BME280;40975;50.390;8.640;2023-02-18T04:09:22;99677.06;;;9.09;100.00
54389;BME280;40975;50.390;8.640;2023-02-18T04:11:47;99669.25;;;9.08;100.00
54389;BME280;40975;50.390;8.640;2023-02-18T04:14:13;99669.00;;;9.11;100.00
54389;BME280;40975;50.390;8.640;2023-02-18T04:16:40;99662.84;;;9.10;100.00
54389;BME280;40975;50.390;8.640;2023-02-18T04:19:05;99658.44;;;9.11;100.00
54389;BME280;40975;50.390;8.640;2023-02-18T04:21:31;99645.91;;;9.13;100.00
54389;BME280;40975;50.390;8.640;2023-02-18T04:23:57;99650.34;;;9.12;100.00
54389;BME280;40975;50.390;8.640;2023-02-18T04:26:22;99653.59;;;9.16;100.00
54389;BME280;40975;50.390;8.640;2023-02-18T04:28:47;99653.34;;;9.19;100.00
54389;BME280;40975;50.390;8.640;2023-02-18T04:31:13;99646.22;;;9.20;100.00
54389;BME280;40975;50.390;8.640;2023-02-18T04:33:39;99656.22;;;9.16;100.00
54389;BME280;40975;50.390;8.640;2023-02-18T04:36:06;99652.63;;;9.17;100.00
54389;BME280;40975;50.390;8.640;2023-02-18T04:38:31;99649.97;;;9.17;100.00
54389;BME280;40975;50.390;8.640;2023-02-18T04:40:57;99655.28;;;9.17;100.00
54389;BME280;40975;50.390;8.640;2023-02-18T04:43:22;99652.84;;;9.14;100.00
54389;BME280;40975;50.390;8.640;2023-02-18T04:45:47;99655.50;;;9.14;100.00
54389;BME280;40975;50.390;8.640;2023-02-18T04:48:13;99653.72;;;9.14;100.00
54389;BME280;40975;50.390;8.640;2023-02-18T04:50:38;99652.03;;;9.13;100.00
54389;BME280;40975;50.390;8.640;2023-02-18T04:53:03;99648.78;;;9.10;100.00
54389;BME280;40975;50.390;8.640;2023-02-18T04:55:29;99645.44;;;9.08;100.00
54389;BME280;40975;50.390;8.640;2023-02-18T04:57:54;99647.25;;;9.07;100.00
54389;BME280;40975;50.390;8.640;2023-02-18T05:00:19;99642.44;;;9.01;100.00
54389;BME280;40975;50.390;8.640;2023-02-18T05:02:45;99637.25;;;8.99;100.00
54389;BME280;40975;50.390;8.640;2023-02-18T05:05:11;99631.75;;;8.91;100.00
54389;BME280;40975;50.390;8.640;2023-02-18T05:07:37;99623.91;;;8.90;100.00
54389;BME280;40975;50.390;8.640;2023-02-18T05:10:03;99633.53;;;8.91;100.00
54389;BME280;40975;50.390;8.640;2023-02-18T05:12:29;99629.72;;;8.83;100.00
54389;BME280;40975;50.390;8.640;2023-02-18T05:14:54;99633.19;;;8.84;100.00
54389;BME280;40975;50.390;8.640;2023-02-18T05:17:19;99625.88;;;8.88;100.00
54389;BME280;40975;50.390;8.640;2023-02-18T05:19:45;99620.56;;;8.88;100.00
54389;BME280;40975;50.390;8.640;2023-02-18T05:22:10;99616.25;;;8.86;100.00
54389;BME280;40975;50.390;8.640;2023-02-18T05:24:35;99618.16;;;8.84;100.00
54389;BME280;40975;50.390;8.640;2023-02-18T05:27:01;99624.28;;;8.85;100.00
54389;BME280;40975;50.390;8.640;2023-02-18T05:29:26;99604.78;;;8.86;100.00
54389;BME280;40975;50.390;8.640;2023-02-18T05:31:51;99607.44;;;8.86;100.00
54389;BME280;40975;50.390;8.640;2023-02-18T05:34:17;99604.56;;;8.89;100.00
54389;BME280;40975;50.390;8.640;2023-02-18T05:36:42;99600.09;;;8.90;100.00
54389;BME280;40975;50.390;8.640;2023-02-18T05:39:08;99589.50;;;8.90;100.00
54389;BME280;40975;50.390;8.640;2023-02-18T05:41:33;99593.47;;;8.95;100.00
54389;BME280;40975;50.390;8.640;2023-02-18T05:43:58;99583.72;;;8.96;100.00
54389;BME280;40975;50.390;8.640;2023-02-18T05:46:42;99594.91;;;8.99;100.00
54389;BME280;40975;50.390;8.640;2023-02-18T05:49:07;99586.59;;;9.04;100.00
54389;BME280;40975;50.390;8.640;2023-02-18T05:51:33;99577.78;;;9.03;100.00
54389;BME280;40975;50.390;8.640;2023-02-18T05:53:58;99581.44;;;9.02;100.00
54389;BME280;40975;50.390;8.640;2023-02-18T05:56:23;99579.75;;;9.01;100.00
54389;BME280;40975;50.390;8.640;2023-02-18T05:58:49;99577.47;;;8.97;100.00
54389;BME280;40975;50.390;8.640;2023-02-18T06:01:14;99578.44;;;8.96;100.00
54389;BME280;40975;50.390;8.640;2023-02-18T06:03:39;99579.63;;;8.92;100.00
54389;BME280;40975;50.390;8.640;2023-02-18T06:06:05;99577.13;;;8.90;100.00
54389;BME280;40975;50.390;8.640;2023-02-18T06:08:31;99575.81;;;8.84;100.00
54389;BME280;40975;50.390;8.640;2023-02-18T06:10:56;99574.38;;;8.80;100.00
54389;BME280;40975;50.390;8.640;2023-02-18T06:13:21;99570.31;;;8.76;100.00
54389;BME280;40975;50.390;8.640;2023-02-18T06:15:50;99568.03;;;8.71;100.00
54389;BME280;40975;50.390;8.640;2023-02-18T06:18:16;99567.06;;;8.73;100.00
54389;BME280;40975;50.390;8.640;2023-02-18T06:20:41;99568.72;;;8.74;100.00
54389;BME280;40975;50.390;8.640;2023-02-18T06:23:06;99572.81;;;8.78;100.00
54389;BME280;40975;50.390;8.640;2023-02-18T06:25:32;99571.13;;;8.77;100.00
54389;BME280;40975;50.390;8.640;2023-02-18T06:27:57;99569.44;;;8.76;100.00
54389;BME280;40975;50.390;8.640;2023-02-18T06:30:22;99560.53;;;8.77;100.00
54389;BME280;40975;50.390;8.640;2023-02-18T06:32:47;99565.38;;;8.71;100.00
54389;BME280;40975;50.390;8.640;2023-02-18T06:35:13;99559.13;;;8.73;100.00
54389;BME280;40975;50.390;8.640;2023-02-18T06:37:38;99570.31;;;8.76;100.00
54389;BME280;40975;50.390;8.640;2023-02-18T06:40:04;99564.16;;;8.76;100.00
54389;BME280;40975;50.390;8.640;2023-02-18T06:42:30;99560.53;;;8.77;100.00
54389;BME280;40975;50.390;8.640;2023-02-18T06:44:55;99557.78;;;8.78;100.00
54389;BME280;40975;50.390;8.640;2023-02-18T06:47:20;99556.81;;;8.79;100.00
54389;BME280;40975;50.390;8.640;2023-02-18T06:49:46;99555.47;;;8.85;100.00
54389;BME280;40975;50.390;8.640;2023-02-18T06:52:11;99561.47;;;8.87;100.00
54389;BME280;40975;50.390;8.640;2023-02-18T06:54:36;99552.19;;;8.93;100.00
54389;BME280;40975;50.390;8.640;2023-02-18T06:57:02;99549.41;;;8.94;100.00
54389;BME280;40975;50.390;8.640;2023-02-18T06:59:27;99545.94;;;8.94;100.00
54389;BME280;40975;50.390;8.640;2023-02-18T07:01:52;99544.25;;;8.93;100.00
54389;BME280;40975;50.390;8.640;2023-02-18T07:04:18;99545.34;;;8.90;100.00
54389;BME280;40975;50.390;8.640;2023-02-18T07:06:43;99536.47;;;8.91;100.00
54389;BME280;40975;50.390;8.640;2023-02-18T07:09:08;99528.63;;;8.90;100.00
54389;BME280;40975;50.390;8.640;2023-02-18T07:11:34;99528.38;;;8.93;100.00
54389;BME280;40975;50.390;8.640;2023-02-18T07:13:59;99530.06;;;8.94;100.00
54389;BME280;40975;50.390;8.640;2023-02-18T07:16:24;99527.28;;;8.95;100.00
54389;BME280;40975;50.390;8.640;2023-02-18T07:18:50;99531.50;;;8.98;100.00
54389;BME280;40975;50.390;8.640;2023-02-18T07:21:15;99503.59;;;8.94;100.00
54389;BME280;40975;50.390;8.640;2023-02-18T07:23:40;99508.38;;;9.00;100.00
54389;BME280;40975;50.390;8.640;2023-02-18T07:26:08;99509.66;;;9.06;100.00
54389;BME280;40975;50.390;8.640;2023-02-18T07:28:34;99527.13;;;9.08;100.00
54389;BME280;40975;50.390;8.640;2023-02-18T07:30:59;99520.84;;;9.09;100.00
54389;BME280;40975;50.390;8.640;2023-02-18T07:33:25;99516.03;;;9.14;100.00
54389;BME280;40975;50.390;8.640;2023-02-18T07:35:58;99517.69;;;9.15;100.00
54389;BME280;40975;50.390;8.640;2023-02-18T07:38:24;99512.28;;;9.17;100.00
54389;BME280;40975;50.390;8.640;2023-02-18T07:40:51;99504.31;;;9.17;100.00
54389;BME280;40975;50.390;8.640;2023-02-18T07:43:16;99503.84;;;9.23;100.00
54389;BME280;40975;50.390;8.640;2023-02-18T07:45:42;99499.94;;;9.27;100.00
54389;BME280;40975;50.390;8.640;2023-02-18T07:48:08;99498.84;;;9.30;100.00
54389;BME280;40975;50.390;8.640;2023-02-18T07:50:34;99481.47;;;9.16;100.00
54389;BME280;40975;50.390;8.640;2023-02-18T07:53:03;99504.13;;;9.30;100.00
54389;BME280;40975;50.390;8.640;2023-02-18T07:55:28;99496.31;;;9.28;100.00
54389;BME280;40975;50.390;8.640;2023-02-18T07:58:12;99498.72;;;9.31;100.00
54389;BME280;40975;50.390;8.640;2023-02-18T08:00:37;99500.78;;;9.28;100.00
54389;BME280;40975;50.390;8.640;2023-02-18T08:03:03;99516.78;;;9.26;100.00
54389;BME280;40975;50.390;8.640;2023-02-18T08:05:28;99516.78;;;9.26;100.00
54389;BME280;40975;50.390;8.640;2023-02-18T08:07:54;99515.25;;;9.24;100.00
54389;BME280;40975;50.390;8.640;2023-02-18T08:10:19;99524.16;;;9.23;100.00
54389;BME280;40975;50.390;8.640;2023-02-18T08:12:44;99532.25;;;9.21;100.00
54389;BME280;40975;50.390;8.640;2023-02-18T08:15:13;99527.91;;;9.20;100.00
54389;BME280;40975;50.390;8.640;2023-02-18T08:17:38;99525.97;;;9.22;100.00
54389;BME280;40975;50.390;8.640;2023-02-18T08:20:04;99545.47;;;9.21;100.00
54389;BME280;40975;50.390;8.640;2023-02-18T08:22:29;99552.47;;;9.22;100.00
54389;BME280;40975;50.390;8.640;2023-02-18T08:24:55;99556.66;;;9.25;100.00
54389;BME280;40975;50.390;8.640;2023-02-18T08:27:21;99549.81;;;9.22;100.00
54389;BME280;40975;50.390;8.640;2023-02-18T08:29:46;99554.59;;;9.28;100.00
54389;BME280;40975;50.390;8.640;2023-02-18T08:32:12;99535.72;;;9.22;100.00
54389;BME280;40975;50.390;8.640;2023-02-18T08:34:37;99539.84;;;9.36;100.00
54389;BME280;40975;50.390;8.640;2023-02-18T08:37:03;99546.78;;;9.27;100.00
54389;BME280;40975;50.390;8.640;2023-02-18T08:39:33;99549.63;;;9.35;100.00
54389;BME280;40975;50.390;8.640;2023-02-18T08:41:58;99542.41;;;9.37;100.00
54389;BME280;40975;50.390;8.640;2023-02-18T08:44:23;99532.88;;;9.34;100.00
54389;BME280;40975;50.390;8.640;2023-02-18T08:46:49;99541.22;;;9.30;100.00
54389;BME280;40975;50.390;8.640;2023-02-18T08:49:15;99542.06;;;9.30;100.00
54389;BME280;40975;50.390;8.640;2023-02-18T08:51:41;99540.25;;;9.31;100.00
54389;BME280;40975;50.390;8.640;2023-02-18T08:54:06;99537.59;;;9.31;100.00
54389;BME280;40975;50.390;8.640;2023-02-18T08:56:31;99548.09;;;9.32;100.00
54389;BME280;40975;50.390;8.640;2023-02-18T08:58:58;99540.81;;;9.34;100.00
54389;BME280;40975;50.390;8.640;2023-02-18T09:01:23;99537.28;;;9.45;100.00
54389;BME280;40975;50.390;8.640;2023-02-18T09:03:48;99533.88;;;9.55;100.00
54389;BME280;40975;50.390;8.640;2023-02-18T09:06:14;99528.25;;;9.48;100.00
54389;BME280;40975;50.390;8.640;2023-02-18T09:08:40;99539.09;;;9.45;100.00
54389;BME280;40975;50.390;8.640;2023-02-18T09:11:05;99539.09;;;9.45;100.00
54389;BME280;40975;50.390;8.640;2023-02-18T09:13:31;99540.91;;;9.44;100.00
54389;BME280;40975;50.390;8.640;2023-02-18T09:16:03;99529.72;;;9.41;100.00
54389;BME280;40975;50.390;8.640;2023-02-18T09:18:29;99524.88;;;9.46;100.00
54389;BME280;40975;50.390;8.640;2023-02-18T09:20:56;99456.47;;;9.09;100.00
54389;BME280;40975;50.390;8.640;2023-02-18T09:23:23;99523.25;;;9.55;100.00
54389;BME280;40975;50.390;8.640;2023-02-18T09:25:50;99545.56;;;9.52;100.00
54389;BME280;40975;50.390;8.640;2023-02-18T09:28:15;99552.22;;;9.46;100.00
54389;BME280;40975;50.390;8.640;2023-02-18T09:30:40;99551.66;;;9.43;100.00
54389;BME280;40975;50.390;8.640;2023-02-18T09:33:06;99547.03;;;9.45;100.00
54389;BME280;40975;50.390;8.640;2023-02-18T09:35:31;99551.75;;;9.41;100.00
54389;BME280;40975;50.390;8.640;2023-02-18T09:37:57;99565.53;;;9.35;100.00
54389;BME280;40975;50.390;8.640;2023-02-18T09:40:26;99560.47;;;9.32;100.00
54389;BME280;40975;50.390;8.640;2023-02-18T09:42:54;99573.34;;;9.37;100.00
54389;BME280;40975;50.390;8.640;2023-02-18T09:45:21;99556.47;;;9.38;100.00
54389;BME280;40975;50.390;8.640;2023-02-18T09:47:48;99561.78;;;9.38;100.00
54389;BME280;40975;50.390;8.640;2023-02-18T09:50:31;99551.19;;;9.38;100.00
54389;BME280;40975;50.390;8.640;2023-02-18T09:52:59;99553.38;;;9.32;100.00
54389;BME280;40975;50.390;8.640;2023-02-18T09:57:56;99548.31;;;9.51;100.00
54389;BME280;40975;50.390;8.640;2023-02-18T10:00:32;99552.06;;;9.69;100.00
54389;BME280;40975;50.390;8.640;2023-02-18T10:03:14;99539.28;;;9.74;100.00
54389;BME280;40975;50.390;8.640;2023-02-18T10:05:57;99529.81;;;9.82;100.00
54389;BME280;40975;50.390;8.640;2023-02-18T10:08:26;99525.63;;;9.79;100.00
54389;BME280;40975;50.390;8.640;2023-02-18T10:10:52;99529.78;;;9.72;100.00
54389;BME280;40975;50.390;8.640;2023-02-18T10:13:20;99531.31;;;9.74;100.00
54389;BME280;40975;50.390;8.640;2023-02-18T10:15:47;99519.47;;;9.78;100.00
54389;BME280;40975;50.390;8.640;2023-02-18T10:20:52;99523.91;;;9.68;100.00
54389;BME280;40975;50.390;8.640;2023-02-18T10:23:20;99528.75;;;9.63;100.00
54389;BME280;40975;50.390;8.640;2023-02-18T10:25:47;99516.59;;;9.60;100.00
54389;BME280;40975;50.390;8.640;2023-02-18T10:28:13;99521.38;;;9.67;100.00
54389;BME280;40975;50.390;8.640;2023-02-18T10:30:42;99527.78;;;9.64;100.00
54389;BME280;40975;50.390;8.640;2023-02-18T10:33:32;99504.47;;;9.58;100.00
54389;BME280;40975;50.390;8.640;2023-02-18T10:41:53;99514.47;;;10.06;100.00
54389;BME280;40975;50.390;8.640;2023-02-18T10:47:29;99505.75;;;9.94;100.00
54389;BME280;40975;50.390;8.640;2023-02-18T10:52:48;99507.66;;;10.23;100.00
54389;BME280;40975;50.390;8.640;2023-02-18T10:55:16;99512.97;;;10.23;100.00
54389;BME280;40975;50.390;8.640;2023-02-18T10:57:49;99504.53;;;10.39;100.00
54389;BME280;40975;50.390;8.640;2023-02-18T11:00:23;99503.59;;;10.80;100.00
54389;BME280;40975;50.390;8.640;2023-02-18T11:03:16;99482.91;;;12.18;98.13
54389;BME280;40975;50.390;8.640;2023-02-18T11:05:43;99483.00;;;11.88;95.96
54389;BME280;40975;50.390;8.640;2023-02-18T11:08:15;99483.59;;;11.25;98.45
54389;BME280;40975;50.390;8.640;2023-02-18T11:10:42;99463.09;;;11.07;98.47
54389;BME280;40975;50.390;8.640;2023-02-18T11:13:11;99472.31;;;11.13;99.63
54389;BME280;40975;50.390;8.640;2023-02-18T11:15:53;99485.59;;;10.73;100.00
54389;BME280;40975;50.390;8.640;2023-02-18T11:20:56;99484.78;;;10.22;100.00
54389;BME280;40975;50.390;8.640;2023-02-18T11:23:22;99475.34;;;10.08;100.00
54389;BME280;40975;50.390;8.640;2023-02-18T11:26:06;99491.16;;;10.10;100.00
54389;BME280;40975;50.390;8.640;2023-02-18T11:28:40;99481.47;;;9.99;100.00
54389;BME280;40975;50.390;8.640;2023-02-18T11:31:07;99472.94;;;9.86;100.00
54389;BME280;40975;50.390;8.640;2023-02-18T11:33:37;99467.22;;;9.90;100.00
54389;BME280;40975;50.390;8.640;2023-02-18T11:36:17;99463.03;;;9.88;100.00
54389;BME280;40975;50.390;8.640;2023-02-18T11:38:46;99465.41;;;9.91;100.00
54389;BME280;40975;50.390;8.640;2023-02-18T11:41:18;99467.56;;;9.76;100.00
54389;BME280;40975;50.390;8.640;2023-02-18T11:43:54;99462.75;;;9.91;100.00
54389;BME280;40975;50.390;8.640;2023-02-18T11:46:22;99458.97;;;9.93;100.00
54389;BME280;40975;50.390;8.640;2023-02-18T11:48:48;99454.38;;;9.95;100.00
54389;BME280;40975;50.390;8.640;2023-02-18T11:51:40;99433.34;;;10.04;100.00
54389;BME280;40975;50.390;8.640;2023-02-18T11:54:30;99426.69;;;10.29;100.00
54389;BME280;40975;50.390;8.640;2023-02-18T11:56:59;99425.63;;;10.41;100.00
54389;BME280;40975;50.390;8.640;2023-02-18T11:59:29;99431.78;;;10.52;100.00
54389;BME280;40975;50.390;8.640;2023-02-18T12:02:02;99416.56;;;10.44;100.00
54389;BME280;40975;50.390;8.640;2023-02-18T12:04:39;99439.06;;;10.69;100.00
54389;BME280;40975;50.390;8.640;2023-02-18T12:07:26;99437.53;;;10.96;100.00
54389;BME280;40975;50.390;8.640;2023-02-18T12:09:57;99441.44;;;11.02;100.00
54389;BME280;40975;50.390;8.640;2023-02-18T12:12:31;99454.16;;;10.88;99.88
54389;BME280;40975;50.390;8.640;2023-02-18T12:15:00;99454.31;;;10.67;100.00
54389;BME280;40975;50.390;8.640;2023-02-18T12:23:48;99442.13;;;10.55;100.00
54389;BME280;40975;50.390;8.640;2023-02-18T12:26:25;99434.59;;;10.60;100.00
54389;BME280;40975;50.390;8.640;2023-02-18T12:32:04;99431.50;;;10.84;100.00
54389;BME280;40975;50.390;8.640;2023-02-18T12:37:45;99451.34;;;10.90;100.00
54389;BME280;40975;50.390;8.640;2023-02-18T12:40:29;99436.53;;;10.87;100.00
54389;BME280;40975;50.390;8.640;2023-02-18T12:43:17;99434.28;;;11.12;100.00
54389;BME280;40975;50.390;8.640;2023-02-18T12:51:02;99452.19;;;10.51;100.00
54389;BME280;40975;50.390;8.640;2023-02-18T12:56:22;99446.59;;;10.54;100.00
54389;BME280;40975;50.390;8.640;2023-02-18T12:59:10;99464.50;;;10.72;100.00
54389;BME280;40975;50.390;8.640;2023-02-18T13:01:49;99463.22;;;10.47;100.00
54389;BME280;40975;50.390;8.640;2023-02-18T13:04:34;99463.63;;;10.52;100.00
54389;BME280;40975;50.390;8.640;2023-02-18T13:07:12;99453.28;;;10.49;100.00
54389;BME280;40975;50.390;8.640;2023-02-18T13:15:17;99449.41;;;10.72;100.00
54389;BME280;40975;50.390;8.640;2023-02-18T13:17:44;99456.53;;;10.72;100.00
54389;BME280;40975;50.390;8.640;2023-02-18T13:20:47;99447.16;;;10.87;100.00
54389;BME280;40975;50.390;8.640;2023-02-18T13:23:23;99453.88;;;10.72;100.00
54389;BME280;40975;50.390;8.640;2023-02-18T13:25:55;99453.16;;;10.60;100.00
54389;BME280;40975;50.390;8.640;2023-02-18T13:28:33;99442.69;;;10.58;100.00
54389;BME280;40975;50.390;8.640;2023-02-18T13:31:13;99443.78;;;10.46;100.00
54389;BME280;40975;50.390;8.640;2023-02-18T13:33:53;99453.28;;;10.39;100.00
54389;BME280;40975;50.390;8.640;2023-02-18T13:39:15;99454.41;;;10.46;100.00
54389;BME280;40975;50.390;8.640;2023-02-18T13:41:45;99450.25;;;10.63;100.00
54389;BME280;40975;50.390;8.640;2023-02-18T13:46:53;99448.00;;;10.78;100.00
54389;BME280;40975;50.390;8.640;2023-02-18T13:49:24;99443.81;;;10.56;100.00
54389;BME280;40975;50.390;8.640;2023-02-18T13:51:53;99447.25;;;10.27;100.00
54389;BME280;40975;50.390;8.640;2023-02-18T13:54:27;99442.47;;;10.21;100.00
54389;BME280;40975;50.390;8.640;2023-02-18T13:57:06;99447.84;;;10.00;100.00
54389;BME280;40975;50.390;8.640;2023-02-18T13:59:46;99451.63;;;10.07;100.00
54389;BME280;40975;50.390;8.640;2023-02-18T14:07:21;99446.91;;;10.10;100.00
54389;BME280;40975;50.390;8.640;2023-02-18T14:09:50;99447.03;;;10.09;100.00
54389;BME280;40975;50.390;8.640;2023-02-18T14:12:35;99439.81;;;10.11;100.00
54389;BME280;40975;50.390;8.640;2023-02-18T14:23:11;99437.31;;;10.19;100.00
54389;BME280;40975;50.390;8.640;2023-02-18T14:25:40;99429.41;;;10.39;100.00
54389;BME280;40975;50.390;8.640;2023-02-18T14:31:28;99430.94;;;10.41;100.00
54389;BME280;40975;50.390;8.640;2023-02-18T14:39:01;99434.88;;;10.37;100.00
54389;BME280;40975;50.390;8.640;2023-02-18T14:41:57;99422.28;;;10.39;100.00
54389;BME280;40975;50.390;8.640;2023-02-18T14:44:48;99434.31;;;10.63;100.00
54389;BME280;40975;50.390;8.640;2023-02-18T14:50:10;99440.59;;;10.52;100.00
54389;BME280;40975;50.390;8.640;2023-02-18T14:52:43;99441.03;;;10.48;100.00
54389;BME280;40975;50.390;8.640;2023-02-18T14:55:19;99436.63;;;10.37;100.00